Hlavní strana
METAR-TAF:

METAR-TAF

Letiště :

Pisa, Itálie

zeměpisná šířka: 43-41N, zeměpisná délka: 010-23E, výška: 2 m

Aktuální stav počasí

Zpráva byla vytvořena před 46 minutami, v 08:45 UTC
Východojihovýchodní vítr 6 kt
Teplota 2°C
Vlhkost vzduchu 93%
Tlak 1024 hPa
Viditelnost 10 km a více
Žádná oblačnost pod 1500 m, nevyskytují se cumulonimby.

METAR: LIRP 190845Z 12006KT CAVOK 02/01 Q1024 NOSIG

Čas: 10:31 (09:31 UTC)

Předpověď počasí

Zpráva byla vytvořena před 4 hodinami a 31 minutami, v 05:00 UTC
Předpověď platná od 19 v 06 UTC do 20 v 06 UTC
Východní vítr 7 kt
Viditelnost 10 km a více
Polojasno ve výšce 2000 ft
Změna
od 19 v 09 UTC do 19 v 11 UTC
Východojihovýchodní vítr 10 kt
Oblačno až skoro zataženo ve výšce 3000 ft
Dočasný
od 19 v 18 UTC do 20 v 06 UTC
Východojihovýchodní vítr 12 kt
Viditelnost: 3000 m
Oblačno až skoro zataženo ve výšce 2000 ft
déšť, kouřmo

TAF: LIRP 190500Z 1906/2006 10007KT 9999 SCT020 BECMG 1909/1911 11010KT BKN030 TEMPO 1918/2006 12012KT 3000 RA BR BKN020

Stav a předpovědi počasí z více než 4 000 letišť (zprávy METAR a TAF).

Červené a žluté tečky na mapě představují dostupné meteorologické stanice.

Když kurzor umístíte na tečku, zobrazí se název stanice.

Pak kliknutím zobrazíte stav a předpověď počasí.

Chcete-li změnit mapu, kliknutím na zelené tlačítko se znaménkem +mapu přiblížíte, kliknutím na zelené tlačítko se znaménkem – mapu oddálíte a kliknutím na zelené šipky přejdete na sousední mapy.


METAR-TAF: